sensor_id;sensor_type;location;lat;lon;timestamp;temperature;humidity
31379;DHT22;61664;48.112;11.662;2022-09-12T00:01:20;14.40;83.10
31379;DHT22;61664;48.112;11.662;2022-09-12T00:03:54;14.40;82.30
31379;DHT22;61664;48.112;11.662;2022-09-12T00:06:35;14.30;82.50
31379;DHT22;61664;48.112;11.662;2022-09-12T00:09:08;14.30;82.90
31379;DHT22;61664;48.112;11.662;2022-09-12T00:11:40;14.30;82.50
31379;DHT22;61664;48.112;11.662;2022-09-12T00:14:11;14.30;83.00
31379;DHT22;61664;48.112;11.662;2022-09-12T00:16:40;14.30;82.80
31379;DHT22;61664;48.112;11.662;2022-09-12T00:19:10;14.30;83.10
31379;DHT22;61664;48.112;11.662;2022-09-12T00:21:39;14.20;83.00
31379;DHT22;61664;48.112;11.662;2022-09-12T00:24:07;14.20;82.90
31379;DHT22;61664;48.112;11.662;2022-09-12T00:26:34;14.20;83.10
31379;DHT22;61664;48.112;11.662;2022-09-12T00:29:01;14.20;83.20
31379;DHT22;61664;48.112;11.662;2022-09-12T00:31:29;14.20;83.20
31379;DHT22;61664;48.112;11.662;2022-09-12T00:33:57;14.20;83.20
31379;DHT22;61664;48.112;11.662;2022-09-12T00:36:27;14.20;83.10
31379;DHT22;61664;48.112;11.662;2022-09-12T00:38:56;14.10;83.10
31379;DHT22;61664;48.112;11.662;2022-09-12T00:41:32;14.10;83.10
31379;DHT22;61664;48.112;11.662;2022-09-12T00:44:57;14.10;82.30
31379;DHT22;61664;48.112;11.662;2022-09-12T00:47:27;14.10;81.80
31379;DHT22;61664;48.112;11.662;2022-09-12T00:50:08;14.10;81.20
31379;DHT22;61664;48.112;11.662;2022-09-12T00:52:48;14.10;81.50
31379;DHT22;61664;48.112;11.662;2022-09-12T00:55:26;14.00;82.30
31379;DHT22;61664;48.112;11.662;2022-09-12T00:58:16;13.90;81.70
31379;DHT22;61664;48.112;11.662;2022-09-12T01:00:48;14.00;82.90
31379;DHT22;61664;48.112;11.662;2022-09-12T01:03:17;13.90;82.90
31379;DHT22;61664;48.112;11.662;2022-09-12T01:06:08;13.90;82.70
31379;DHT22;61664;48.112;11.662;2022-09-12T01:08:42;13.90;81.30
31379;DHT22;61664;48.112;11.662;2022-09-12T01:11:11;13.90;82.90
31379;DHT22;61664;48.112;11.662;2022-09-12T01:13:38;13.90;82.80
31379;DHT22;61664;48.112;11.662;2022-09-12T01:16:06;13.90;82.90
31379;DHT22;61664;48.112;11.662;2022-09-12T01:21:38;13.80;81.80
31379;DHT22;61664;48.112;11.662;2022-09-12T01:28:07;13.80;82.00
31379;DHT22;61664;48.112;11.662;2022-09-12T01:30:54;13.70;81.10
31379;DHT22;61664;48.112;11.662;2022-09-12T01:33:42;13.70;82.00
31379;DHT22;61664;48.112;11.662;2022-09-12T01:36:53;13.70;81.10
31379;DHT22;61664;48.112;11.662;2022-09-12T01:39:40;13.60;81.40
31379;DHT22;61664;48.112;11.662;2022-09-12T01:42:32;13.60;81.90
31379;DHT22;61664;48.112;11.662;2022-09-12T01:45:32;13.60;81.60
31379;DHT22;61664;48.112;11.662;2022-09-12T01:48:19;13.50;81.50
31379;DHT22;61664;48.112;11.662;2022-09-12T01:51:06;13.50;82.00
31379;DHT22;61664;48.112;11.662;2022-09-12T01:53:43;13.50;81.90
31379;DHT22;61664;48.112;11.662;2022-09-12T01:56:26;13.50;82.80
31379;DHT22;61664;48.112;11.662;2022-09-12T01:58:57;13.50;82.40
31379;DHT22;61664;48.112;11.662;2022-09-12T02:01:34;13.50;81.40
31379;DHT22;61664;48.112;11.662;2022-09-12T02:06:57;13.40;82.50
31379;DHT22;61664;48.112;11.662;2022-09-12T02:09:53;13.40;82.70
31379;DHT22;61664;48.112;11.662;2022-09-12T02:12:28;13.40;81.20
31379;DHT22;61664;48.112;11.662;2022-09-12T02:15:06;13.40;82.30
31379;DHT22;61664;48.112;11.662;2022-09-12T02:17:41;13.40;82.20
31379;DHT22;61664;48.112;11.662;2022-09-12T02:20:26;13.40;81.90
31379;DHT22;61664;48.112;11.662;2022-09-12T02:23:21;13.30;82.50
31379;DHT22;61664;48.112;11.662;2022-09-12T02:25:56;13.30;81.70
31379;DHT22;61664;48.112;11.662;2022-09-12T02:28:30;13.30;82.30
31379;DHT22;61664;48.112;11.662;2022-09-12T02:31:20;13.20;82.10
31379;DHT22;61664;48.112;11.662;2022-09-12T02:39:36;13.20;81.00
31379;DHT22;61664;48.112;11.662;2022-09-12T02:42:05;13.20;82.40
31379;DHT22;61664;48.112;11.662;2022-09-12T02:44:34;13.10;82.40
31379;DHT22;61664;48.112;11.662;2022-09-12T02:47:24;13.10;82.50
31379;DHT22;61664;48.112;11.662;2022-09-12T02:50:01;13.00;81.30
31379;DHT22;61664;48.112;11.662;2022-09-12T02:52:31;13.10;82.80
31379;DHT22;61664;48.112;11.662;2022-09-12T02:54:58;13.00;82.80
31379;DHT22;61664;48.112;11.662;2022-09-12T02:57:25;13.00;82.90
31379;DHT22;61664;48.112;11.662;2022-09-12T02:59:55;13.00;82.90
31379;DHT22;61664;48.112;11.662;2022-09-12T03:02:46;12.90;82.70
31379;DHT22;61664;48.112;11.662;2022-09-12T03:05:28;13.00;83.00
31379;DHT22;61664;48.112;11.662;2022-09-12T03:16:34;12.90;81.60
31379;DHT22;61664;48.112;11.662;2022-09-12T03:22:17;12.90;82.20
31379;DHT22;61664;48.112;11.662;2022-09-12T03:24:42;12.90;82.60
31379;DHT22;61664;48.112;11.662;2022-09-12T03:27:33;12.90;82.80
31379;DHT22;61664;48.112;11.662;2022-09-12T03:30:05;12.80;82.30
31379;DHT22;61664;48.112;11.662;2022-09-12T03:32:51;12.90;82.60
31379;DHT22;61664;48.112;11.662;2022-09-12T03:35:23;12.90;81.50
31379;DHT22;61664;48.112;11.662;2022-09-12T03:37:51;12.80;82.90
31379;DHT22;61664;48.112;11.662;2022-09-12T03:40:19;12.80;82.40
31379;DHT22;61664;48.112;11.662;2022-09-12T03:42:46;12.80;82.40
31379;DHT22;61664;48.112;11.662;2022-09-12T03:45:13;12.70;82.30
31379;DHT22;61664;48.112;11.662;2022-09-12T03:47:41;12.80;82.30
31379;DHT22;61664;48.112;11.662;2022-09-12T03:50:08;12.80;82.40
31379;DHT22;61664;48.112;11.662;2022-09-12T03:52:36;12.70;82.40
31379;DHT22;61664;48.112;11.662;2022-09-12T03:55:03;12.70;82.40
31379;DHT22;61664;48.112;11.662;2022-09-12T03:57:30;12.70;82.50
31379;DHT22;61664;48.112;11.662;2022-09-12T03:59:57;12.70;82.50
31379;DHT22;61664;48.112;11.662;2022-09-12T04:02:24;12.70;82.50
31379;DHT22;61664;48.112;11.662;2022-09-12T04:04:51;12.70;82.40
31379;DHT22;61664;48.112;11.662;2022-09-12T04:07:18;12.60;82.30
31379;DHT22;61664;48.112;11.662;2022-09-12T04:09:45;12.60;82.30
31379;DHT22;61664;48.112;11.662;2022-09-12T04:12:11;12.60;82.30
31379;DHT22;61664;48.112;11.662;2022-09-12T04:14:39;12.60;82.30
31379;DHT22;61664;48.112;11.662;2022-09-12T04:17:07;12.60;82.20
31379;DHT22;61664;48.112;11.662;2022-09-12T04:19:33;12.60;82.20
31379;DHT22;61664;48.112;11.662;2022-09-12T04:22:00;12.60;82.20
31379;DHT22;61664;48.112;11.662;2022-09-12T04:24:27;12.60;82.10
31379;DHT22;61664;48.112;11.662;2022-09-12T04:26:54;12.50;82.00
31379;DHT22;61664;48.112;11.662;2022-09-12T04:29:21;12.50;82.00
31379;DHT22;61664;48.112;11.662;2022-09-12T04:31:48;12.50;82.10
31379;DHT22;61664;48.112;11.662;2022-09-12T04:34:15;12.50;82.20
31379;DHT22;61664;48.112;11.662;2022-09-12T04:36:43;12.40;82.20
31379;DHT22;61664;48.112;11.662;2022-09-12T04:39:09;12.40;82.20
31379;DHT22;61664;48.112;11.662;2022-09-12T04:41:39;12.40;82.20
31379;DHT22;61664;48.112;11.662;2022-09-12T04:44:11;12.40;82.10
31379;DHT22;61664;48.112;11.662;2022-09-12T04:46:42;12.40;81.90
31379;DHT22;61664;48.112;11.662;2022-09-12T04:49:13;12.40;82.00
31379;DHT22;61664;48.112;11.662;2022-09-12T04:51:45;12.40;82.10
31379;DHT22;61664;48.112;11.662;2022-09-12T04:54:15;12.40;82.20
31379;DHT22;61664;48.112;11.662;2022-09-12T04:56:45;12.30;82.10
31379;DHT22;61664;48.112;11.662;2022-09-12T04:59:16;12.40;82.30
31379;DHT22;61664;48.112;11.662;2022-09-12T05:01:45;12.40;82.40
31379;DHT22;61664;48.112;11.662;2022-09-12T05:04:12;12.40;82.60
31379;DHT22;61664;48.112;11.662;2022-09-12T05:06:41;12.40;82.70
31379;DHT22;61664;48.112;11.662;2022-09-12T05:09:10;12.30;82.80
31379;DHT22;61664;48.112;11.662;2022-09-12T05:11:40;12.30;82.60
31379;DHT22;61664;48.112;11.662;2022-09-12T05:14:28;12.40;82.80
31379;DHT22;61664;48.112;11.662;2022-09-12T05:16:57;12.40;83.00
31379;DHT22;61664;48.112;11.662;2022-09-12T05:19:27;12.40;83.10
31379;DHT22;61664;48.112;11.662;2022-09-12T05:21:56;12.40;83.40
31379;DHT22;61664;48.112;11.662;2022-09-12T05:24:23;12.40;83.60
31379;DHT22;61664;48.112;11.662;2022-09-12T05:26:51;12.40;84.00
31379;DHT22;61664;48.112;11.662;2022-09-12T05:29:18;12.40;84.20
31379;DHT22;61664;48.112;11.662;2022-09-12T05:31:45;12.50;84.40
31379;DHT22;61664;48.112;11.662;2022-09-12T05:34:15;12.50;84.40
31379;DHT22;61664;48.112;11.662;2022-09-12T05:36:42;12.50;84.30
31379;DHT22;61664;48.112;11.662;2022-09-12T05:39:09;12.60;84.50
31379;DHT22;61664;48.112;11.662;2022-09-12T05:41:36;12.60;84.60
31379;DHT22;61664;48.112;11.662;2022-09-12T05:44:05;12.60;84.70
31379;DHT22;61664;48.112;11.662;2022-09-12T05:46:37;12.60;84.60
31379;DHT22;61664;48.112;11.662;2022-09-12T05:49:08;12.70;84.20
31379;DHT22;61664;48.112;11.662;2022-09-12T05:51:42;12.70;84.90
31379;DHT22;61664;48.112;11.662;2022-09-12T05:54:12;12.80;84.60
31379;DHT22;61664;48.112;11.662;2022-09-12T05:56:42;12.80;85.20
31379;DHT22;61664;48.112;11.662;2022-09-12T05:59:18;12.90;82.90
31379;DHT22;61664;48.112;11.662;2022-09-12T06:01:46;12.90;85.00
31379;DHT22;61664;48.112;11.662;2022-09-12T06:04:14;13.00;86.10
31379;DHT22;61664;48.112;11.662;2022-09-12T06:06:43;13.10;86.40
31379;DHT22;61664;48.112;11.662;2022-09-12T06:09:13;13.10;86.50
31379;DHT22;61664;48.112;11.662;2022-09-12T06:11:42;13.20;86.80
31379;DHT22;61664;48.112;11.662;2022-09-12T06:14:12;13.30;87.00
31379;DHT22;61664;48.112;11.662;2022-09-12T06:16:40;13.40;87.10
31379;DHT22;61664;48.112;11.662;2022-09-12T06:19:14;13.50;87.50
31379;DHT22;61664;48.112;11.662;2022-09-12T06:21:45;13.60;86.50
31379;DHT22;61664;48.112;11.662;2022-09-12T06:24:16;13.80;87.90
31379;DHT22;61664;48.112;11.662;2022-09-12T06:26:44;13.90;87.60
31379;DHT22;61664;48.112;11.662;2022-09-12T06:29:13;13.90;87.90
31379;DHT22;61664;48.112;11.662;2022-09-12T06:31:42;14.10;88.10
31379;DHT22;61664;48.112;11.662;2022-09-12T06:34:11;14.20;87.80
31379;DHT22;61664;48.112;11.662;2022-09-12T06:36:42;14.30;87.70
31379;DHT22;61664;48.112;11.662;2022-09-12T06:39:13;14.40;87.60
31379;DHT22;61664;48.112;11.662;2022-09-12T06:41:42;14.60;87.50
31379;DHT22;61664;48.112;11.662;2022-09-12T06:44:13;14.70;87.90
31379;DHT22;61664;48.112;11.662;2022-09-12T06:46:45;14.80;87.50
31379;DHT22;61664;48.112;11.662;2022-09-12T06:49:13;15.00;88.00
31379;DHT22;61664;48.112;11.662;2022-09-12T06:51:40;15.10;88.40
31379;DHT22;61664;48.112;11.662;2022-09-12T06:54:11;15.20;88.00
31379;DHT22;61664;48.112;11.662;2022-09-12T06:56:39;15.30;87.30
31379;DHT22;61664;48.112;11.662;2022-09-12T06:59:06;15.50;88.30
31379;DHT22;61664;48.112;11.662;2022-09-12T07:01:33;15.60;88.20
31379;DHT22;61664;48.112;11.662;2022-09-12T07:04:01;15.70;88.00
31379;DHT22;61664;48.112;11.662;2022-09-12T07:06:34;15.90;87.80
31379;DHT22;61664;48.112;11.662;2022-09-12T07:09:04;16.00;87.70
31379;DHT22;61664;48.112;11.662;2022-09-12T07:11:35;16.20;87.60
31379;DHT22;61664;48.112;11.662;2022-09-12T07:14:05;16.30;87.50
31379;DHT22;61664;48.112;11.662;2022-09-12T07:16:36;16.40;87.40
31379;DHT22;61664;48.112;11.662;2022-09-12T07:19:05;16.60;86.00
31379;DHT22;61664;48.112;11.662;2022-09-12T07:21:34;16.70;86.40
31379;DHT22;61664;48.112;11.662;2022-09-12T07:24:08;16.80;86.40
31379;DHT22;61664;48.112;11.662;2022-09-12T07:26:37;16.90;86.20
31379;DHT22;61664;48.112;11.662;2022-09-12T07:29:06;17.00;86.10
31379;DHT22;61664;48.112;11.662;2022-09-12T07:31:54;17.10;85.30
31379;DHT22;61664;48.112;11.662;2022-09-12T07:34:21;17.20;85.50
31379;DHT22;61664;48.112;11.662;2022-09-12T07:36:48;17.30;85.50
31379;DHT22;61664;48.112;11.662;2022-09-12T07:39:15;17.40;85.70
31379;DHT22;61664;48.112;11.662;2022-09-12T07:41:41;17.50;86.00
31379;DHT22;61664;48.112;11.662;2022-09-12T07:44:08;17.70;86.70
31379;DHT22;61664;48.112;11.662;2022-09-12T07:46:35;17.90;88.70
31379;DHT22;61664;48.112;11.662;2022-09-12T07:49:02;18.10;90.50
31379;DHT22;61664;48.112;11.662;2022-09-12T07:51:29;18.40;91.60
31379;DHT22;61664;48.112;11.662;2022-09-12T07:53:57;18.70;92.60
31379;DHT22;61664;48.112;11.662;2022-09-12T07:56:25;19.20;93.10
31379;DHT22;61664;48.112;11.662;2022-09-12T07:58:57;19.60;92.50
31379;DHT22;61664;48.112;11.662;2022-09-12T08:01:24;20.20;92.70
31379;DHT22;61664;48.112;11.662;2022-09-12T08:03:57;20.70;91.90
31379;DHT22;61664;48.112;11.662;2022-09-12T08:06:26;21.30;86.50
31379;DHT22;61664;48.112;11.662;2022-09-12T08:08:56;21.90;90.00
31379;DHT22;61664;48.112;11.662;2022-09-12T08:11:25;22.50;81.70
31379;DHT22;61664;48.112;11.662;2022-09-12T08:13:56;23.00;87.10
31379;DHT22;61664;48.112;11.662;2022-09-12T08:16:26;23.50;85.70
31379;DHT22;61664;48.112;11.662;2022-09-12T08:18:56;24.00;82.10
31379;DHT22;61664;48.112;11.662;2022-09-12T08:21:25;24.50;82.60
31379;DHT22;61664;48.112;11.662;2022-09-12T08:24:02;25.00;78.80
31379;DHT22;61664;48.112;11.662;2022-09-12T08:26:32;25.40;78.70
31379;DHT22;61664;48.112;11.662;2022-09-12T08:29:00;25.80;77.10
31379;DHT22;61664;48.112;11.662;2022-09-12T08:31:27;26.10;75.70
31379;DHT22;61664;48.112;11.662;2022-09-12T08:33:55;26.40;75.70
31379;DHT22;61664;48.112;11.662;2022-09-12T08:36:25;26.70;74.70
31379;DHT22;61664;48.112;11.662;2022-09-12T08:38:55;27.00;71.70
31379;DHT22;61664;48.112;11.662;2022-09-12T08:41:40;27.30;72.10
31379;DHT22;61664;48.112;11.662;2022-09-12T08:47:26;27.70;62.90
31379;DHT22;61664;48.112;11.662;2022-09-12T08:52:50;28.30;63.90
31379;DHT22;61664;48.112;11.662;2022-09-12T08:55:45;28.50;63.60
31379;DHT22;61664;48.112;11.662;2022-09-12T08:58:21;28.70;69.60
31379;DHT22;61664;48.112;11.662;2022-09-12T09:01:19;29.00;68.60
31379;DHT22;61664;48.112;11.662;2022-09-12T09:13:01;30.30;66.50
31379;DHT22;61664;48.112;11.662;2022-09-12T09:18:41;30.80;65.90
31379;DHT22;61664;48.112;11.662;2022-09-12T09:21:28;31.10;64.80
31379;DHT22;61664;48.112;11.662;2022-09-12T09:24:08;31.30;56.80
31379;DHT22;61664;48.112;11.662;2022-09-12T09:26:45;31.60;57.00
31379;DHT22;61664;48.112;11.662;2022-09-12T09:29:19;31.80;59.20
31379;DHT22;61664;48.112;11.662;2022-09-12T09:32:05;31.90;55.40
31379;DHT22;61664;48.112;11.662;2022-09-12T09:34:40;32.10;60.00
31379;DHT22;61664;48.112;11.662;2022-09-12T09:37:31;32.20;60.50
31379;DHT22;61664;48.112;11.662;2022-09-12T09:43:21;32.70;55.70
31379;DHT22;61664;48.112;11.662;2022-09-12T09:45:50;32.80;52.90
31379;DHT22;61664;48.112;11.662;2022-09-12T09:48:22;33.00;57.60
31379;DHT22;61664;48.112;11.662;2022-09-12T09:50:52;33.20;54.90
31379;DHT22;61664;48.112;11.662;2022-09-12T09:56:38;33.60;50.20
31379;DHT22;61664;48.112;11.662;2022-09-12T10:01:51;33.90;52.40
31379;DHT22;61664;48.112;11.662;2022-09-12T10:04:29;34.20;49.80
31379;DHT22;61664;48.112;11.662;2022-09-12T10:06:59;34.50;54.00
31379;DHT22;61664;48.112;11.662;2022-09-12T10:09:30;34.70;54.40
31379;DHT22;61664;48.112;11.662;2022-09-12T10:11:59;35.00;53.20
31379;DHT22;61664;48.112;11.662;2022-09-12T10:15:15;35.20;53.70
31379;DHT22;61664;48.112;11.662;2022-09-12T10:17:46;35.40;48.00
31379;DHT22;61664;48.112;11.662;2022-09-12T10:26:08;35.80;51.00
31379;DHT22;61664;48.112;11.662;2022-09-12T10:28:44;35.90;47.50
31379;DHT22;61664;48.112;11.662;2022-09-12T10:31:23;35.90;50.00
31379;DHT22;61664;48.112;11.662;2022-09-12T10:34:21;35.90;45.70
31379;DHT22;61664;48.112;11.662;2022-09-12T10:36:59;36.00;44.90
31379;DHT22;61664;48.112;11.662;2022-09-12T10:39:29;35.80;44.80
31379;DHT22;61664;48.112;11.662;2022-09-12T10:41:56;35.70;46.20
31379;DHT22;61664;48.112;11.662;2022-09-12T10:44:26;35.20;45.90
31379;DHT22;61664;48.112;11.662;2022-09-12T10:46:57;34.70;44.40
31379;DHT22;61664;48.112;11.662;2022-09-12T10:49:30;34.10;45.00
31379;DHT22;61664;48.112;11.662;2022-09-12T10:52:23;33.60;44.80
31379;DHT22;61664;48.112;11.662;2022-09-12T10:54:51;32.90;42.90
31379;DHT22;61664;48.112;11.662;2022-09-12T10:57:59;32.20;45.50
31379;DHT22;61664;48.112;11.662;2022-09-12T11:00:39;31.50;43.60
31379;DHT22;61664;48.112;11.662;2022-09-12T11:03:22;30.90;44.60
31379;DHT22;61664;48.112;11.662;2022-09-12T11:05:57;30.30;43.60
31379;DHT22;61664;48.112;11.662;2022-09-12T11:11:49;29.20;47.40
31379;DHT22;61664;48.112;11.662;2022-09-12T11:14:12;28.80;47.70
31379;DHT22;61664;48.112;11.662;2022-09-12T11:16:59;28.30;46.10
31379;DHT22;61664;48.112;11.662;2022-09-12T11:28:49;26.90;47.80
31379;DHT22;61664;48.112;11.662;2022-09-12T11:37:36;26.20;50.80
31379;DHT22;61664;48.112;11.662;2022-09-12T11:42:51;25.80;50.30
31379;DHT22;61664;48.112;11.662;2022-09-12T11:45:29;25.60;51.20
31379;DHT22;61664;48.112;11.662;2022-09-12T11:48:05;25.50;51.20
31379;DHT22;61664;48.112;11.662;2022-09-12T11:50:38;25.40;51.60
31379;DHT22;61664;48.112;11.662;2022-09-12T11:53:17;25.30;53.00
31379;DHT22;61664;48.112;11.662;2022-09-12T11:56:05;25.20;50.60
31379;DHT22;61664;48.112;11.662;2022-09-12T11:58:38;25.10;51.10
31379;DHT22;61664;48.112;11.662;2022-09-12T12:03:47;25.00;52.60
31379;DHT22;61664;48.112;11.662;2022-09-12T12:09:03;24.90;53.30
31379;DHT22;61664;48.112;11.662;2022-09-12T12:11:55;24.80;53.50
31379;DHT22;61664;48.112;11.662;2022-09-12T12:14:28;24.80;52.60
31379;DHT22;61664;48.112;11.662;2022-09-12T12:17:03;24.80;53.40
31379;DHT22;61664;48.112;11.662;2022-09-12T12:19:34;24.70;53.60
31379;DHT22;61664;48.112;11.662;2022-09-12T12:22:22;24.70;52.10
31379;DHT22;61664;48.112;11.662;2022-09-12T12:27:51;24.60;52.50
31379;DHT22;61664;48.112;11.662;2022-09-12T12:33:00;24.70;52.00
31379;DHT22;61664;48.112;11.662;2022-09-12T12:35:42;24.60;53.30
31379;DHT22;61664;48.112;11.662;2022-09-12T12:38:37;24.70;51.50
31379;DHT22;61664;48.112;11.662;2022-09-12T12:47:21;24.90;51.10
31379;DHT22;61664;48.112;11.662;2022-09-12T12:52:28;25.00;52.00
31379;DHT22;61664;48.112;11.662;2022-09-12T12:55:02;25.10;53.20
31379;DHT22;61664;48.112;11.662;2022-09-12T13:00:24;25.30;51.70
31379;DHT22;61664;48.112;11.662;2022-09-12T13:03:01;25.40;52.70
31379;DHT22;61664;48.112;11.662;2022-09-12T13:05:46;25.50;51.70
31379;DHT22;61664;48.112;11.662;2022-09-12T13:11:13;25.70;53.90
31379;DHT22;61664;48.112;11.662;2022-09-12T13:13:56;25.80;51.00
31379;DHT22;61664;48.112;11.662;2022-09-12T13:16:37;25.90;50.20
31379;DHT22;61664;48.112;11.662;2022-09-12T13:19:12;25.90;51.20
31379;DHT22;61664;48.112;11.662;2022-09-12T13:24:28;26.00;50.00
31379;DHT22;61664;48.112;11.662;2022-09-12T13:26:56;26.10;53.90
31379;DHT22;61664;48.112;11.662;2022-09-12T13:29:25;26.20;53.50
31379;DHT22;61664;48.112;11.662;2022-09-12T13:34:29;26.40;52.80
31379;DHT22;61664;48.112;11.662;2022-09-12T13:37:23;26.50;51.40
31379;DHT22;61664;48.112;11.662;2022-09-12T13:43:38;26.80;49.40
31379;DHT22;61664;48.112;11.662;2022-09-12T13:46:08;27.00;49.90
31379;DHT22;61664;48.112;11.662;2022-09-12T13:48:42;27.20;53.80
31379;DHT22;61664;48.112;11.662;2022-09-12T13:51:21;27.60;55.10
31379;DHT22;61664;48.112;11.662;2022-09-12T13:53:53;28.00;51.20
31379;DHT22;61664;48.112;11.662;2022-09-12T13:56:23;28.60;55.80
31379;DHT22;61664;48.112;11.662;2022-09-12T13:58:58;29.20;55.10
31379;DHT22;61664;48.112;11.662;2022-09-12T14:01:38;29.80;48.80
31379;DHT22;61664;48.112;11.662;2022-09-12T14:04:16;30.30;48.40
31379;DHT22;61664;48.112;11.662;2022-09-12T14:07:27;30.80;48.60
31379;DHT22;61664;48.112;11.662;2022-09-12T14:09:55;31.40;48.90
31379;DHT22;61664;48.112;11.662;2022-09-12T14:12:31;31.80;51.90
31379;DHT22;61664;48.112;11.662;2022-09-12T14:15:03;32.30;48.90
31379;DHT22;61664;48.112;11.662;2022-09-12T14:17:35;32.70;52.20
31379;DHT22;61664;48.112;11.662;2022-09-12T14:20:13;33.30;47.90
31379;DHT22;61664;48.112;11.662;2022-09-12T14:22:42;33.80;46.50
31379;DHT22;61664;48.112;11.662;2022-09-12T14:25:20;34.30;50.10
31379;DHT22;61664;48.112;11.662;2022-09-12T14:27:52;34.80;44.90
31379;DHT22;61664;48.112;11.662;2022-09-12T14:30:29;35.30;49.40
31379;DHT22;61664;48.112;11.662;2022-09-12T14:35:42;36.30;47.30
31379;DHT22;61664;48.112;11.662;2022-09-12T14:40:49;37.30;47.30
31379;DHT22;61664;48.112;11.662;2022-09-12T14:43:30;37.70;43.00
31379;DHT22;61664;48.112;11.662;2022-09-12T14:46:13;37.80;41.10
31379;DHT22;61664;48.112;11.662;2022-09-12T14:48:50;37.90;40.20
31379;DHT22;61664;48.112;11.662;2022-09-12T14:51:21;37.80;42.80
31379;DHT22;61664;48.112;11.662;2022-09-12T14:53:52;37.80;43.30
31379;DHT22;61664;48.112;11.662;2022-09-12T14:56:21;37.70;43.60
31379;DHT22;61664;48.112;11.662;2022-09-12T14:59:35;37.60;43.40
31379;DHT22;61664;48.112;11.662;2022-09-12T15:04:41;37.30;39.30
31379;DHT22;61664;48.112;11.662;2022-09-12T15:07:33;37.10;42.40
31379;DHT22;61664;48.112;11.662;2022-09-12T15:10:06;36.80;38.90
31379;DHT22;61664;48.112;11.662;2022-09-12T15:12:43;36.40;41.60
31379;DHT22;61664;48.112;11.662;2022-09-12T15:15:20;36.00;42.00
31379;DHT22;61664;48.112;11.662;2022-09-12T15:17:46;35.70;38.50
31379;DHT22;61664;48.112;11.662;2022-09-12T15:20:13;35.50;41.90
31379;DHT22;61664;48.112;11.662;2022-09-12T15:22:41;35.30;41.60
31379;DHT22;61664;48.112;11.662;2022-09-12T15:25:09;35.00;42.00
31379;DHT22;61664;48.112;11.662;2022-09-12T15:27:38;34.80;41.80
31379;DHT22;61664;48.112;11.662;2022-09-12T15:30:08;34.70;42.80
31379;DHT22;61664;48.112;11.662;2022-09-12T15:32:39;34.70;43.80
31379;DHT22;61664;48.112;11.662;2022-09-12T15:35:15;34.80;44.30
31379;DHT22;61664;48.112;11.662;2022-09-12T15:37:50;35.00;40.40
31379;DHT22;61664;48.112;11.662;2022-09-12T15:40:17;35.30;44.20
31379;DHT22;61664;48.112;11.662;2022-09-12T15:42:44;35.60;43.20
31379;DHT22;61664;48.112;11.662;2022-09-12T15:45:18;35.60;42.80
31379;DHT22;61664;48.112;11.662;2022-09-12T15:47:47;35.60;39.00
31379;DHT22;61664;48.112;11.662;2022-09-12T15:50:14;35.60;43.10
31379;DHT22;61664;48.112;11.662;2022-09-12T15:52:41;35.60;43.00
31379;DHT22;61664;48.112;11.662;2022-09-12T15:55:18;35.70;43.60
31379;DHT22;61664;48.112;11.662;2022-09-12T15:57:48;35.90;40.60
31379;DHT22;61664;48.112;11.662;2022-09-12T16:00:16;36.00;43.40
31379;DHT22;61664;48.112;11.662;2022-09-12T16:02:45;36.10;42.90
31379;DHT22;61664;48.112;11.662;2022-09-12T16:05:20;36.10;42.20
31379;DHT22;61664;48.112;11.662;2022-09-12T16:07:52;36.00;38.30
31379;DHT22;61664;48.112;11.662;2022-09-12T16:10:26;35.70;40.40
31379;DHT22;61664;48.112;11.662;2022-09-12T16:12:55;35.50;39.00
31379;DHT22;61664;48.112;11.662;2022-09-12T16:15:24;35.10;40.30
31379;DHT22;61664;48.112;11.662;2022-09-12T16:17:51;34.80;40.00
31379;DHT22;61664;48.112;11.662;2022-09-12T16:20:20;34.40;40.00
31379;DHT22;61664;48.112;11.662;2022-09-12T16:22:48;34.00;39.90
31379;DHT22;61664;48.112;11.662;2022-09-12T16:25:15;33.60;39.80
31379;DHT22;61664;48.112;11.662;2022-09-12T16:27:43;33.10;39.90
31379;DHT22;61664;48.112;11.662;2022-09-12T16:30:10;32.60;39.70
31379;DHT22;61664;48.112;11.662;2022-09-12T16:32:38;32.10;39.80
31379;DHT22;61664;48.112;11.662;2022-09-12T16:35:06;31.70;40.30
31379;DHT22;61664;48.112;11.662;2022-09-12T16:37:33;31.20;40.20
31379;DHT22;61664;48.112;11.662;2022-09-12T16:40:01;30.80;40.70
31379;DHT22;61664;48.112;11.662;2022-09-12T16:42:30;30.40;40.70
31379;DHT22;61664;48.112;11.662;2022-09-12T16:44:57;30.00;41.50
31379;DHT22;61664;48.112;11.662;2022-09-12T16:47:23;29.70;41.50
31379;DHT22;61664;48.112;11.662;2022-09-12T16:49:50;29.40;41.70
31379;DHT22;61664;48.112;11.662;2022-09-12T16:52:17;29.10;42.10
31379;DHT22;61664;48.112;11.662;2022-09-12T16:54:44;28.80;42.50
31379;DHT22;61664;48.112;11.662;2022-09-12T16:57:11;28.50;42.60
31379;DHT22;61664;48.112;11.662;2022-09-12T16:59:38;28.20;42.60
31379;DHT22;61664;48.112;11.662;2022-09-12T17:02:06;27.90;42.80
31379;DHT22;61664;48.112;11.662;2022-09-12T17:04:33;27.60;43.30
31379;DHT22;61664;48.112;11.662;2022-09-12T17:07:00;27.40;44.30
31379;DHT22;61664;48.112;11.662;2022-09-12T17:09:27;27.20;44.10
31379;DHT22;61664;48.112;11.662;2022-09-12T17:11:55;26.90;44.30
31379;DHT22;61664;48.112;11.662;2022-09-12T17:14:23;26.60;44.30
31379;DHT22;61664;48.112;11.662;2022-09-12T17:16:51;26.40;44.70
31379;DHT22;61664;48.112;11.662;2022-09-12T17:19:22;26.10;44.90
31379;DHT22;61664;48.112;11.662;2022-09-12T17:21:57;25.90;44.90
31379;DHT22;61664;48.112;11.662;2022-09-12T17:24:25;25.70;45.70
31379;DHT22;61664;48.112;11.662;2022-09-12T17:26:52;25.40;46.20
31379;DHT22;61664;48.112;11.662;2022-09-12T17:29:19;25.20;46.40
31379;DHT22;61664;48.112;11.662;2022-09-12T17:31:46;25.00;46.80
31379;DHT22;61664;48.112;11.662;2022-09-12T17:34:14;24.80;47.20
31379;DHT22;61664;48.112;11.662;2022-09-12T17:36:42;24.60;47.60
31379;DHT22;61664;48.112;11.662;2022-09-12T17:39:11;24.40;48.00
31379;DHT22;61664;48.112;11.662;2022-09-12T17:41:40;24.20;48.20
31379;DHT22;61664;48.112;11.662;2022-09-12T17:44:10;24.10;48.60
31379;DHT22;61664;48.112;11.662;2022-09-12T17:46:38;23.90;48.60
31379;DHT22;61664;48.112;11.662;2022-09-12T17:49:10;23.70;49.20
31379;DHT22;61664;48.112;11.662;2022-09-12T17:51:39;23.60;49.50
31379;DHT22;61664;48.112;11.662;2022-09-12T17:54:11;23.40;49.70
31379;DHT22;61664;48.112;11.662;2022-09-12T17:56:42;23.20;49.70